Time,TemperatureF,DewpointF,PressureIn,WindDirection,WindDirectionDegrees,WindSpeedMPH,WindSpeedGustMPH,Humidity,HourlyPrecipIn,Conditions,Clouds,dailyrainin,SolarRadiationWatts/m^2,SoftwareType,DateUTC
2013-04-21 02:11:00,30.0,28.0,-100.00,NNE,18,0.0,0.0,91,-99.99,,,0.00,1.000000,,2013-04-21 09:11:00,
2013-04-21 03:12:00,28.0,26.0,-100.00,NE,48,0.0,2.0,92,-99.99,,,0.00,1.000000,,2013-04-21 10:12:00,
2013-04-21 04:12:00,27.0,25.0,-100.00,SSE,162,0.0,3.0,93,-99.99,,,0.00,1.000000,,2013-04-21 11:12:00,
2013-04-21 05:12:00,27.0,25.0,-100.00,ENE,61,0.0,0.0,93,-99.99,,,0.00,1.000000,,2013-04-21 12:12:00,
2013-04-21 06:11:00,26.0,24.0,-100.00,ESE,102,0.0,0.0,92,-99.99,,,0.00,1.000000,,2013-04-21 13:11:00,
2013-04-21 07:11:00,26.0,24.0,-100.00,SSE,147,0.0,0.0,92,-99.99,,,0.00,9.000000,,2013-04-21 14:11:00,
2013-04-21 07:51:00,34.0,31.0,-100.00,SSE,155,1.0,3.0,87,-99.99,,,0.00,137.000000,,2013-04-21 14:51:00,
2013-04-21 08:11:00,34.0,31.0,-100.00,SSE,155,1.0,3.0,87,-99.99,,,0.00,137.000000,,2013-04-21 15:11:00,
2013-04-21 08:22:00,34.0,31.0,-100.00,SSE,155,1.0,3.0,87,-99.99,,,0.00,137.000000,,2013-04-21 15:22:00,
2013-04-21 08:33:00,34.0,31.0,-100.00,SSE,155,1.0,3.0,87,-99.99,,,0.00,137.000000,,2013-04-21 15:33:00,
2013-04-21 08:42:00,34.0,31.0,-100.00,SSE,155,1.0,3.0,87,-99.99,,,0.00,137.000000,,2013-04-21 15:42:00,
2013-04-21 08:51:00,49.0,27.0,-100.00,ESE,106,0.0,2.0,42,0.00,,,0.00,421.000000,,2013-04-21 15:51:00,
2013-04-21 09:12:00,49.0,27.0,-100.00,ESE,106,0.0,2.0,42,0.00,,,0.00,421.000000,,2013-04-21 16:12:00,
2013-04-21 09:22:00,49.0,27.0,-100.00,ESE,106,0.0,2.0,42,0.00,,,0.00,421.000000,,2013-04-21 16:22:00,
2013-04-21 09:32:00,49.0,27.0,-100.00,ESE,106,0.0,2.0,42,0.00,,,0.00,421.000000,,2013-04-21 16:32:00,
2013-04-21 09:42:00,49.0,27.0,-100.00,ESE,106,0.0,2.0,42,0.00,,,0.00,421.000000,,2013-04-21 16:42:00,
2013-04-21 09:51:00,56.0,24.0,-100.00,WNW,290,3.0,5.0,29,0.00,,,0.00,625.000000,,2013-04-21 16:51:00,
2013-04-21 10:12:00,56.0,24.0,-100.00,WNW,290,3.0,5.0,29,0.00,,,0.00,625.000000,,2013-04-21 17:12:00,
2013-04-21 10:22:00,56.0,24.0,-100.00,WNW,290,3.0,5.0,29,0.00,,,0.00,625.000000,,2013-04-21 17:22:00,
2013-04-21 10:32:00,56.0,24.0,-100.00,WNW,290,3.0,5.0,29,0.00,,,0.00,625.000000,,2013-04-21 17:32:00,
2013-04-21 10:42:00,56.0,24.0,-100.00,WNW,290,3.0,5.0,29,0.00,,,0.00,625.000000,,2013-04-21 17:42:00,
2013-04-21 10:51:00,61.0,23.0,-100.00,NNE,33,4.0,8.0,23,0.00,,,0.00,795.000000,,2013-04-21 17:51:00,
2013-04-21 11:11:00,61.0,23.0,-100.00,NNE,33,4.0,8.0,23,0.00,,,0.00,795.000000,,2013-04-21 18:11:00,
2013-04-21 11:22:00,61.0,23.0,-100.00,NNE,33,4.0,8.0,23,0.00,,,0.00,795.000000,,2013-04-21 18:22:00,
2013-04-21 11:32:00,61.0,23.0,-100.00,NNE,33,4.0,8.0,23,0.00,,,0.00,795.000000,,2013-04-21 18:32:00,
2013-04-21 11:42:00,61.0,23.0,-100.00,NNE,33,4.0,8.0,23,0.00,,,0.00,795.000000,,2013-04-21 18:42:00,
2013-04-21 11:51:00,63.0,24.0,-100.00,NNE,30,5.0,11.0,22,0.00,,,0.00,920.000000,,2013-04-21 18:51:00,
2013-04-21 12:11:00,63.0,24.0,-100.00,NNE,30,5.0,11.0,22,0.00,,,0.00,920.000000,,2013-04-21 19:11:00,
2013-04-21 12:21:00,63.0,24.0,-100.00,NNE,30,5.0,11.0,22,0.00,,,0.00,920.000000,,2013-04-21 19:21:00,
2013-04-21 12:32:00,63.0,24.0,-100.00,NNE,30,5.0,11.0,22,0.00,,,0.00,920.000000,,2013-04-21 19:32:00,
2013-04-21 12:42:00,63.0,24.0,-100.00,NNE,30,5.0,11.0,22,0.00,,,0.00,920.000000,,2013-04-21 19:42:00,
2013-04-21 12:51:00,65.0,24.0,-100.00,NE,47,5.0,9.0,21,0.00,,,0.00,988.000000,,2013-04-21 19:51:00,
2013-04-21 13:11:00,65.0,24.0,-100.00,NE,47,5.0,9.0,21,0.00,,,0.00,988.000000,,2013-04-21 20:11:00,
2013-04-21 13:22:00,65.0,24.0,-100.00,NE,47,5.0,9.0,21,0.00,,,0.00,988.000000,,2013-04-21 20:22:00,
2013-04-21 13:31:00,65.0,24.0,-100.00,NE,47,5.0,9.0,21,0.00,,,0.00,988.000000,,2013-04-21 20:31:00,
2013-04-21 13:41:00,65.0,24.0,-100.00,NE,47,5.0,9.0,21,0.00,,,0.00,988.000000,,2013-04-21 20:41:00,
2013-04-21 13:51:00,68.0,24.0,-100.00,NNE,18,5.0,9.0,19,0.00,,,0.00,981.000000,,2013-04-21 20:51:00,
2013-04-21 14:12:00,68.0,24.0,-100.00,NNE,18,5.0,9.0,19,0.00,,,0.00,981.000000,,2013-04-21 21:12:00,
2013-04-21 14:21:00,68.0,24.0,-100.00,NNE,18,5.0,9.0,19,0.00,,,0.00,981.000000,,2013-04-21 21:21:00,
2013-04-21 14:33:00,68.0,24.0,-100.00,NNE,18,5.0,9.0,19,0.00,,,0.00,981.000000,,2013-04-21 21:33:00,
2013-04-21 14:43:00,68.0,24.0,-100.00,NNE,18,5.0,9.0,19,0.00,,,0.00,981.000000,,2013-04-21 21:43:00,
2013-04-21 14:51:00,70.0,23.0,-100.00,East,95,4.0,9.0,17,0.00,,,-99.99,922.000000,,2013-04-21 21:51:00,
2013-04-21 15:22:00,70.0,23.0,-100.00,East,95,4.0,9.0,17,0.00,,,-99.99,922.000000,,2013-04-21 22:22:00,
2013-04-21 15:33:00,70.0,23.0,-100.00,East,95,4.0,9.0,17,0.00,,,-99.99,922.000000,,2013-04-21 22:33:00,
2013-04-21 15:43:00,70.0,23.0,-100.00,East,95,4.0,9.0,17,0.00,,,-99.99,922.000000,,2013-04-21 22:43:00,
2013-04-21 15:51:00,70.0,26.0,-100.00,WSW,246,4.0,11.0,19,0.00,,,0.00,793.000000,,2013-04-21 22:51:00,
2013-04-21 16:12:00,70.0,26.0,-100.00,WSW,246,4.0,11.0,19,0.00,,,0.00,793.000000,,2013-04-21 23:12:00,
2013-04-21 16:22:00,70.0,26.0,-100.00,WSW,246,4.0,11.0,19,0.00,,,0.00,793.000000,,2013-04-21 23:22:00,
2013-04-21 16:32:00,70.0,26.0,-100.00,WSW,246,4.0,11.0,19,0.00,,,0.00,793.000000,,2013-04-21 23:32:00,
2013-04-21 16:42:00,70.0,26.0,-100.00,WSW,246,4.0,11.0,19,0.00,,,0.00,793.000000,,2013-04-21 23:42:00,
2013-04-21 16:51:00,68.0,32.0,-100.00,WSW,247,4.0,10.0,26,0.00,,,0.00,623.000000,,2013-04-21 23:51:00,
2013-04-21 17:11:00,68.0,32.0,-100.00,WSW,247,4.0,10.0,26,0.00,,,0.00,623.000000,,2013-04-22 00:11:00,
2013-04-21 17:21:00,68.0,32.0,-100.00,WSW,247,4.0,10.0,26,0.00,,,0.00,623.000000,,2013-04-22 00:21:00,
2013-04-21 17:32:00,68.0,32.0,-100.00,WSW,247,4.0,10.0,26,0.00,,,0.00,623.000000,,2013-04-22 00:32:00,
2013-04-21 17:42:00,68.0,32.0,-100.00,WSW,247,4.0,10.0,26,0.00,,,0.00,623.000000,,2013-04-22 00:42:00,
2013-04-21 17:51:00,65.0,33.0,-100.00,West,280,4.0,8.0,30,0.00,,,0.00,340.000000,,2013-04-22 00:51:00,
2013-04-21 18:21:00,65.0,33.0,-100.00,West,280,4.0,8.0,30,0.00,,,0.00,340.000000,,2013-04-22 01:21:00,
2013-04-21 18:32:00,65.0,33.0,-100.00,West,280,4.0,8.0,30,0.00,,,0.00,340.000000,,2013-04-22 01:32:00,
2013-04-21 18:41:00,65.0,33.0,-100.00,West,280,4.0,8.0,30,0.00,,,0.00,340.000000,,2013-04-22 01:41:00,
2013-04-21 18:51:00,61.0,36.0,-100.00,SW,221,4.0,11.0,39,0.00,,,0.00,45.000000,,2013-04-22 01:51:00,
2013-04-21 19:11:00,61.0,36.0,-100.00,SW,221,4.0,11.0,39,0.00,,,0.00,45.000000,,2013-04-22 02:11:00,
2013-04-21 19:21:00,61.0,36.0,-100.00,SW,221,4.0,11.0,39,0.00,,,0.00,45.000000,,2013-04-22 02:21:00,
2013-04-21 19:32:00,61.0,36.0,-100.00,SW,221,4.0,11.0,39,0.00,,,0.00,45.000000,,2013-04-22 02:32:00,
2013-04-21 19:41:00,61.0,36.0,-100.00,SW,221,4.0,11.0,39,0.00,,,0.00,45.000000,,2013-04-22 02:41:00,
2013-04-21 19:51:00,54.0,35.0,-100.00,SSE,162,4.0,9.0,48,0.00,,,0.00,17.000000,,2013-04-22 02:51:00,
2013-04-21 20:11:00,54.0,35.0,-100.00,SSE,162,4.0,9.0,48,0.00,,,0.00,17.000000,,2013-04-22 03:11:00,
2013-04-21 20:22:00,54.0,35.0,-100.00,SSE,162,4.0,9.0,48,0.00,,,0.00,17.000000,,2013-04-22 03:22:00,
2013-04-21 20:33:00,54.0,35.0,-100.00,SSE,162,4.0,9.0,48,0.00,,,0.00,17.000000,,2013-04-22 03:33:00,
2013-04-21 20:42:00,54.0,35.0,-100.00,SSE,162,4.0,9.0,48,0.00,,,0.00,17.000000,,2013-04-22 03:42:00,
2013-04-21 20:51:00,52.0,34.0,-100.00,South,186,3.0,11.0,50,0.00,,,0.00,1.000000,,2013-04-22 03:51:00,
2013-04-21 21:12:00,52.0,34.0,-100.00,South,186,3.0,11.0,50,0.00,,,0.00,1.000000,,2013-04-22 04:12:00,
2013-04-21 21:23:00,52.0,34.0,-100.00,South,186,3.0,11.0,50,0.00,,,0.00,1.000000,,2013-04-22 04:23:00,
2013-04-21 21:32:00,52.0,34.0,-100.00,South,186,3.0,11.0,50,0.00,,,0.00,1.000000,,2013-04-22 04:32:00,
2013-04-21 21:43:00,52.0,34.0,-100.00,South,186,3.0,11.0,50,0.00,,,0.00,1.000000,,2013-04-22 04:43:00,
2013-04-21 21:51:00,46.0,36.0,-100.00,SSW,208,3.0,7.0,67,0.00,,,0.00,1.000000,,2013-04-22 04:51:00,
2013-04-21 22:12:00,46.0,36.0,-100.00,SSW,208,3.0,7.0,67,0.00,,,0.00,1.000000,,2013-04-22 05:12:00,
2013-04-21 22:22:00,46.0,36.0,-100.00,SSW,208,3.0,7.0,67,0.00,,,0.00,1.000000,,2013-04-22 05:22:00,
2013-04-21 22:32:00,46.0,36.0,-100.00,SSW,208,3.0,7.0,67,0.00,,,0.00,1.000000,,2013-04-22 05:32:00,
2013-04-21 22:42:00,46.0,36.0,-100.00,SSW,208,3.0,7.0,67,0.00,,,0.00,1.000000,,2013-04-22 05:42:00,
2013-04-21 22:51:00,42.0,33.0,-100.00,South,176,0.0,8.0,70,0.00,,,0.00,1.000000,,2013-04-22 05:51:00,
2013-04-21 23:21:00,42.0,33.0,-100.00,South,176,0.0,8.0,70,0.00,,,0.00,1.000000,,2013-04-22 06:21:00,
2013-04-21 23:32:00,42.0,33.0,-100.00,South,176,0.0,8.0,70,0.00,,,0.00,1.000000,,2013-04-22 06:32:00,
2013-04-21 23:42:00,42.0,33.0,-100.00,South,176,0.0,8.0,70,0.00,,,0.00,1.000000,,2013-04-22 06:42:00,